Time;durP1;ratioP1;P1;durP2;ratioP2;P2;SDS_P1;SDS_P2;PMS_P1;PMS_P2;Temp;Humidity;BMP_temperature;BMP_pressure;BME280_temperature;BME280_humidity;BME280_pressure;Samples;Min_cycle;Max_cycle;Signal;HPM_P1;HPM_P2
2022/12/07 00:00:43;;;;;;;1.53;1.23;;;;;;;;;;4990478;28;20026;-81
2022/12/07 00:03:08;;;;;;;3.13;1.80;;;;;;;;;;4990041;28;20105;-81
2022/12/07 00:05:34;;;;;;;2.97;1.50;;;;;;;;;;4991768;28;20030;-81
2022/12/07 00:07:59;;;;;;;3.20;1.60;;;;;;;;;;4990940;28;20049;-81
2022/12/07 00:10:25;;;;;;;10.93;2.10;;;;;;;;;;4991873;28;20121;-81
2022/12/07 00:12:50;;;;;;;5.13;1.67;;;;;;;;;;4996340;28;20034;-80
2022/12/07 00:15:16;;;;;;;2.93;1.60;;;;;;;;;;4996120;28;20038;-80
2022/12/07 00:17:41;;;;;;;2.10;1.90;;;;;;;;;;4991813;28;20030;-81
2022/12/07 00:20:07;;;;;;;3.07;1.27;;;;;;;;;;5007822;28;20030;-81
2022/12/07 00:22:32;;;;;;;3.37;1.83;;;;;;;;;;4990410;28;20026;-81
2022/12/07 00:24:58;;;;;;;3.70;1.60;;;;;;;;;;4992051;28;20026;-81
2022/12/07 00:27:23;;;;;;;2.37;1.73;;;;;;;;;;4977818;28;20034;-81
2022/12/07 00:29:49;;;;;;;2.10;1.80;;;;;;;;;;4970448;28;20031;-81
2022/12/07 00:32:14;;;;;;;3.47;2.00;;;;;;;;;;4971853;28;20510;-81
2022/12/07 00:34:40;;;;;;;2.97;1.90;;;;;;;;;;4970896;28;20029;-81
2022/12/07 00:37:05;;;;;;;3.10;2.00;;;;;;;;;;4970397;28;20042;-80
2022/12/07 00:39:31;;;;;;;3.53;1.90;;;;;;;;;;4970335;28;20170;-81
2022/12/07 00:41:56;;;;;;;5.80;2.37;;;;;;;;;;4970420;28;20026;-81
2022/12/07 00:44:22;;;;;;;3.80;1.80;;;;;;;;;;4971334;28;20031;-81
2022/12/07 00:46:47;;;;;;;3.27;1.90;;;;;;;;;;4971681;28;20150;-81
2022/12/07 00:49:13;;;;;;;2.43;2.00;;;;;;;;;;4971289;28;20331;-81
2022/12/07 00:51:38;;;;;;;4.73;2.40;;;;;;;;;;4970536;28;20046;-80
2022/12/07 00:54:03;;;;;;;6.53;2.20;;;;;;;;;;4970342;28;20038;-81
2022/12/07 00:56:29;;;;;;;3.20;1.83;;;;;;;;;;4970165;28;20034;-81
2022/12/07 00:59:00;;;;;;;3.00;2.03;;;;;;;;;;4969494;28;20038;-81
2022/12/07 01:01:28;;;;;;;8.73;2.63;;;;;;;;;;4970274;28;20062;-81
2022/12/07 01:03:53;;;;;;;2.90;2.07;;;;;;;;;;4970748;28;20058;-81
2022/12/07 01:06:21;;;;;;;4.00;2.30;;;;;;;;;;4974779;28;20031;-80
2022/12/07 01:08:46;;;;;;;3.10;2.10;;;;;;;;;;4970921;28;20031;-81
2022/12/07 01:11:15;;;;;;;5.57;2.10;;;;;;;;;;4969905;28;20037;-81
2022/12/07 01:13:41;;;;;;;4.53;2.00;;;;;;;;;;4970083;28;20114;-80
2022/12/07 01:16:09;;;;;;;3.07;2.13;;;;;;;;;;4969893;28;20114;-81
2022/12/07 01:18:36;;;;;;;4.43;2.57;;;;;;;;;;4971157;28;20566;-81
2022/12/07 01:21:05;;;;;;;10.70;2.93;;;;;;;;;;4969832;28;20030;-81
2022/12/07 01:23:31;;;;;;;3.83;2.10;;;;;;;;;;4971247;28;20475;-81
2022/12/07 01:25:58;;;;;;;4.13;2.43;;;;;;;;;;4971765;28;20045;-81
2022/12/07 01:28:24;;;;;;;2.67;2.10;;;;;;;;;;4990598;28;20073;-80
2022/12/07 01:31:17;;;;;;;4.47;1.90;;;;;;;;;;4989189;28;20486;-80
2022/12/07 01:33:51;;;;;;;3.80;2.53;;;;;;;;;;4990308;28;20045;-80
2022/12/07 01:36:21;;;;;;;3.77;2.20;;;;;;;;;;4988971;28;20092;-80
2022/12/07 01:38:48;;;;;;;8.03;2.33;;;;;;;;;;4989482;28;20327;-81
2022/12/07 01:41:15;;;;;;;4.97;2.63;;;;;;;;;;4990635;28;20106;-82
2022/12/07 01:44:08;;;;;;;2.47;1.90;;;;;;;;;;5005934;28;20085;-81
2022/12/07 01:46:33;;;;;;;11.83;2.77;;;;;;;;;;4989000;28;20034;-81
2022/12/07 01:49:00;;;;;;;5.90;2.30;;;;;;;;;;4990471;28;20129;-80
2022/12/07 01:51:27;;;;;;;2.53;1.93;;;;;;;;;;4988898;28;20019;-80
2022/12/07 01:53:53;;;;;;;5.77;2.70;;;;;;;;;;5005333;28;20535;-81
2022/12/07 01:56:23;;;;;;;5.03;2.50;;;;;;;;;;5006713;28;20030;-80
2022/12/07 01:58:49;;;;;;;6.80;2.63;;;;;;;;;;4994537;28;20077;-80
2022/12/07 02:01:14;;;;;;;4.13;2.13;;;;;;;;;;5006929;28;20026;-80
2022/12/07 02:03:42;;;;;;;4.17;2.60;;;;;;;;;;4991734;28;20426;-80
2022/12/07 02:06:10;;;;;;;5.10;2.70;;;;;;;;;;4991527;28;20046;-80
2022/12/07 02:08:35;;;;;;;4.00;2.67;;;;;;;;;;4990198;28;20045;-81
2022/12/07 02:11:03;;;;;;;7.20;2.57;;;;;;;;;;4992450;28;20023;-81
2022/12/07 02:13:32;;;;;;;4.47;3.07;;;;;;;;;;5008305;28;20081;-81
2022/12/07 02:16:25;;;;;;;5.33;2.93;;;;;;;;;;4991681;28;20482;-81
2022/12/07 02:19:25;;;;;;;3.30;2.57;;;;;;;;;;4993230;28;20026;-81
2022/12/07 02:21:59;;;;;;;4.70;3.03;;;;;;;;;;4992018;28;20038;-80
2022/12/07 02:24:50;;;;;;;4.63;2.40;;;;;;;;;;4991947;28;20383;-80
2022/12/07 02:27:47;;;;;;;8.10;4.10;;;;;;;;;;4979337;28;20037;-81
2022/12/07 02:30:16;;;;;;;4.27;2.73;;;;;;;;;;4972143;28;20523;-80
2022/12/07 02:32:54;;;;;;;4.50;2.67;;;;;;;;;;4972681;28;20639;-80
2022/12/07 02:35:33;;;;;;;3.40;2.27;;;;;;;;;;4972506;28;20054;-80
2022/12/07 02:38:08;;;;;;;5.50;2.87;;;;;;;;;;4972975;28;20026;-82
2022/12/07 02:41:03;;;;;;;3.53;2.57;;;;;;;;;;4973177;28;20077;-82
2022/12/07 02:43:34;;;;;;;3.57;2.40;;;;;;;;;;4967810;28;20042;-81
2022/12/07 02:46:06;;;;;;;4.77;2.40;;;;;;;;;;4973624;28;20031;-82
2022/12/07 02:48:32;;;;;;;;;;;;;;;;;;4974165;28;20035;-81
2022/12/07 02:50:58;;;;;;;3.87;2.37;;;;;;;;;;4973422;28;19945;-81
2022/12/07 02:53:36;;;;;;;4.60;2.30;;;;;;;;;;4976945;28;20030;-80
2022/12/07 02:56:16;;;;;;;3.53;2.27;;;;;;;;;;4976951;28;20027;-80
2022/12/07 02:58:44;;;;;;;8.93;3.67;;;;;;;;;;4973215;28;20483;-80
2022/12/07 03:01:25;;;;;;;3.00;2.27;;;;;;;;;;4971244;28;20026;-80
2022/12/07 03:04:09;;;;;;;3.23;2.37;;;;;;;;;;4972371;28;20050;-80
2022/12/07 03:06:48;;;;;;;3.67;2.73;;;;;;;;;;4974390;28;20054;-80
2022/12/07 03:09:35;;;;;;;2.97;1.97;;;;;;;;;;4972352;28;20030;-80
2022/12/07 03:12:10;;;;;;;3.43;2.47;;;;;;;;;;4971898;28;20121;-81
2022/12/07 03:14:47;;;;;;;4.77;2.67;;;;;;;;;;4973135;28;20174;-81
2022/12/07 03:17:19;;;;;;;4.90;2.93;;;;;;;;;;4973595;28;20472;-81
2022/12/07 03:19:46;;;;;;;8.45;2.67;;;;;;;;;;4972074;28;20054;-81
2022/12/07 03:22:13;;;;;;;2.80;2.30;;;;;;;;;;4974118;28;20471;-80
2022/12/07 03:24:47;;;;;;;3.43;2.63;;;;;;;;;;4975667;28;20094;-79
2022/12/07 03:27:16;;;;;;;4.03;2.50;;;;;;;;;;4995151;28;20114;-79
2022/12/07 03:29:50;;;;;;;3.60;2.37;;;;;;;;;;4972882;28;20054;-79
2022/12/07 03:32:54;;;;;;;3.10;2.10;;;;;;;;;;4971163;28;20037;-77
2022/12/07 03:35:37;;;;;;;3.37;2.03;;;;;;;;;;4969388;28;20124;-78
2022/12/07 03:38:21;;;;;;;4.80;2.80;;;;;;;;;;4971058;28;20027;-78
2022/12/07 03:41:29;;;;;;;5.83;2.83;;;;;;;;;;4970820;28;20030;-80
2022/12/07 03:43:55;;;;;;;4.93;2.73;;;;;;;;;;4950500;29;20046;-81
2022/12/07 03:46:47;;;;;;;4.00;2.60;;;;;;;;;;4950897;29;20528;-79
2022/12/07 03:49:26;;;;;;;4.15;2.70;;;;;;;;;;4960570;28;20053;-78
2022/12/07 03:51:55;;;;;;;4.20;2.70;;;;;;;;;;4970730;28;20030;-79
2022/12/07 03:54:41;;;;;;;4.60;3.00;;;;;;;;;;4972536;28;20022;-79
2022/12/07 03:57:09;;;;;;;4.80;2.63;;;;;;;;;;4974079;28;20555;-80
2022/12/07 03:59:35;;;;;;;6.47;2.77;;;;;;;;;;4971069;28;20027;-80
2022/12/07 04:02:03;;;;;;;3.80;2.93;;;;;;;;;;4971494;28;20034;-80
2022/12/07 04:04:30;;;;;;;4.80;3.00;;;;;;;;;;4972297;28;20026;-79
2022/12/07 04:06:56;;;;;;;3.77;2.60;;;;;;;;;;4971961;28;20022;-78
2022/12/07 04:09:22;;;;;;;4.20;2.70;;;;;;;;;;4970130;28;20510;-78
2022/12/07 04:11:47;;;;;;;7.07;3.20;;;;;;;;;;4970521;28;20572;-78
2022/12/07 04:14:19;;;;;;;4.40;2.90;;;;;;;;;;4971772;28;20034;-79
2022/12/07 04:16:56;;;;;;;5.10;2.63;;;;;;;;;;4970390;28;20027;-78
2022/12/07 04:19:28;;;;;;;4.93;3.30;;;;;;;;;;4969772;28;20031;-78
2022/12/07 04:21:55;;;;;;;5.88;3.08;;;;;;;;;;4970287;28;20482;-80
2022/12/07 04:24:21;;;;;;;5.47;3.30;;;;;;;;;;4971004;28;20109;-79
2022/12/07 04:26:47;;;;;;;6.70;4.00;;;;;;;;;;4978608;28;20030;-79
2022/12/07 04:29:13;;;;;;;4.87;3.20;;;;;;;;;;5005582;28;20034;-79
2022/12/07 04:31:39;;;;;;;7.17;2.90;;;;;;;;;;4989171;28;20477;-79
2022/12/07 04:34:05;;;;;;;5.47;3.73;;;;;;;;;;4990287;28;20053;-79
2022/12/07 04:36:31;;;;;;;7.47;3.53;;;;;;;;;;4989062;28;20129;-79
2022/12/07 04:38:57;;;;;;;6.37;3.60;;;;;;;;;;4990905;28;20110;-79
2022/12/07 04:41:26;;;;;;;5.83;3.63;;;;;;;;;;4989799;28;20113;-79
2022/12/07 04:44:03;;;;;;;7.27;3.67;;;;;;;;;;4990485;28;20034;-78
2022/12/07 04:46:31;;;;;;;6.33;4.00;;;;;;;;;;5005271;28;20044;-78
2022/12/07 04:48:57;;;;;;;7.17;4.13;;;;;;;;;;4989265;28;20427;-79
2022/12/07 04:51:26;;;;;;;6.03;3.93;;;;;;;;;;4990899;28;20431;-79
2022/12/07 04:53:52;;;;;;;7.53;4.67;;;;;;;;;;4989088;28;20470;-78
2022/12/07 04:56:18;;;;;;;8.50;4.30;;;;;;;;;;4990311;28;20081;-77
2022/12/07 04:58:46;;;;;;;7.13;4.13;;;;;;;;;;4989286;28;20070;-77
2022/12/07 05:01:12;;;;;;;6.27;3.80;;;;;;;;;;4989675;28;20459;-79
2022/12/07 05:03:38;;;;;;;7.57;3.97;;;;;;;;;;4990526;28;20097;-80
2022/12/07 05:06:04;;;;;;;7.20;4.00;;;;;;;;;;4989156;28;20109;-78
2022/12/07 05:08:30;;;;;;;6.63;4.03;;;;;;;;;;4989413;28;20026;-79
2022/12/07 05:10:56;;;;;;;7.40;4.70;;;;;;;;;;5005119;28;20370;-79
2022/12/07 05:13:21;;;;;;;9.77;4.80;;;;;;;;;;4990539;28;20498;-79
2022/12/07 05:15:48;;;;;;;7.57;4.27;;;;;;;;;;4989089;28;20022;-78
2022/12/07 05:18:14;;;;;;;7.57;4.47;;;;;;;;;;5005975;28;20031;-79
2022/12/07 05:20:40;;;;;;;7.93;4.53;;;;;;;;;;4990033;28;20041;-79
2022/12/07 05:23:06;;;;;;;9.53;4.17;;;;;;;;;;4990985;28;20026;-79
2022/12/07 05:25:31;;;;;;;9.50;5.27;;;;;;;;;;4991300;28;20100;-79
2022/12/07 05:27:57;;;;;;;8.73;4.60;;;;;;;;;;4986512;28;20154;-78
2022/12/07 05:30:24;;;;;;;9.40;5.20;;;;;;;;;;4973088;28;20027;-78
2022/12/07 05:32:50;;;;;;;8.33;5.00;;;;;;;;;;4989165;28;20034;-78
2022/12/07 05:35:16;;;;;;;7.67;5.20;;;;;;;;;;4974716;28;20023;-78
2022/12/07 05:37:42;;;;;;;10.63;4.93;;;;;;;;;;4971798;28;20510;-79
2022/12/07 05:40:09;;;;;;;12.07;5.40;;;;;;;;;;4987197;28;20031;-79
2022/12/07 05:42:34;;;;;;;13.03;5.57;;;;;;;;;;4970775;28;20117;-79
2022/12/07 05:45:00;;;;;;;11.80;5.33;;;;;;;;;;4987932;28;20122;-79
2022/12/07 05:47:26;;;;;;;9.00;5.60;;;;;;;;;;4973089;28;20093;-79
2022/12/07 05:49:52;;;;;;;11.50;6.27;;;;;;;;;;4973091;28;20086;-79
2022/12/07 05:52:17;;;;;;;9.07;6.20;;;;;;;;;;4974022;28;20106;-78
2022/12/07 05:54:43;;;;;;;12.43;6.03;;;;;;;;;;4972330;28;20027;-78
2022/12/07 05:57:08;;;;;;;9.47;5.07;;;;;;;;;;4988946;28;20034;-79
2022/12/07 05:59:34;;;;;;;11.30;6.43;;;;;;;;;;4974008;28;20336;-79
2022/12/07 06:02:03;;;;;;;13.87;6.40;;;;;;;;;;4975128;28;20443;-79
2022/12/07 06:04:32;;;;;;;10.90;5.73;;;;;;;;;;4988843;28;20065;-79
2022/12/07 06:06:58;;;;;;;11.43;6.17;;;;;;;;;;4988621;28;20545;-77
2022/12/07 06:09:24;;;;;;;10.03;5.90;;;;;;;;;;4974264;28;20031;-80
2022/12/07 06:14:35;;;;;;;9.60;5.20;;;;;;;;;;4974660;28;20152;-80
2022/12/07 06:17:01;;;;;;;10.93;5.00;;;;;;;;;;4973264;28;20022;-80
2022/12/07 06:19:26;;;;;;;11.03;4.87;;;;;;;;;;4972164;28;20027;-79
2022/12/07 06:21:52;;;;;;;8.27;4.43;;;;;;;;;;4973668;28;20725;-80
2022/12/07 06:24:18;;;;;;;7.53;4.50;;;;;;;;;;4972847;28;20027;-80
2022/12/07 06:26:44;;;;;;;12.37;5.63;;;;;;;;;;4972788;28;20031;-79
2022/12/07 06:29:11;;;;;;;7.70;4.60;;;;;;;;;;4972610;28;20062;-80
2022/12/07 06:31:37;;;;;;;8.47;5.27;;;;;;;;;;4972282;28;20630;-79
2022/12/07 06:34:06;;;;;;;12.80;5.27;;;;;;;;;;4974235;28;20057;-79
2022/12/07 06:36:32;;;;;;;10.97;4.93;;;;;;;;;;4971870;28;20047;-79
2022/12/07 06:38:58;;;;;;;8.37;4.83;;;;;;;;;;4973838;28;20344;-80
2022/12/07 06:41:24;;;;;;;11.27;4.87;;;;;;;;;;4972201;28;20035;-80
2022/12/07 06:43:49;;;;;;;9.73;5.43;;;;;;;;;;4962152;28;20387;-73
2022/12/07 06:46:18;;;;;;;10.67;4.97;;;;;;;;;;4986071;28;20120;-77
2022/12/07 06:48:45;;;;;;;11.17;5.30;;;;;;;;;;4993450;28;20037;-77
2022/12/07 06:51:11;;;;;;;9.60;4.63;;;;;;;;;;5005732;28;20235;-78
2022/12/07 06:53:37;;;;;;;9.43;5.03;;;;;;;;;;4987645;28;20037;-79
2022/12/07 06:56:03;;;;;;;10.57;4.63;;;;;;;;;;5003593;28;20030;-80
2022/12/07 06:58:28;;;;;;;8.93;4.53;;;;;;;;;;4989254;28;20100;-78
2022/12/07 07:00:54;;;;;;;10.70;5.93;;;;;;;;;;4980102;28;20423;-77
2022/12/07 07:03:20;;;;;;;10.37;5.23;;;;;;;;;;4998812;28;20040;-77
2022/12/07 07:05:45;;;;;;;10.73;4.97;;;;;;;;;;4977865;28;20142;-77
2022/12/07 07:08:12;;;;;;;8.93;5.40;;;;;;;;;;5002045;28;20378;-76
2022/12/07 07:10:38;;;;;;;11.27;7.30;;;;;;;;;;4989412;28;20042;-79
2022/12/07 07:13:04;;;;;;;8.17;5.10;;;;;;;;;;4991352;28;20030;-78
2022/12/07 07:15:31;;;;;;;11.70;4.90;;;;;;;;;;4994309;28;20028;-79
2022/12/07 07:17:57;;;;;;;11.40;5.00;;;;;;;;;;4989886;28;20038;-79
2022/12/07 07:20:22;;;;;;;12.27;5.43;;;;;;;;;;4988234;28;20030;-78
2022/12/07 07:22:48;;;;;;;9.53;5.90;;;;;;;;;;4990309;28;20064;-79
2022/12/07 07:25:14;;;;;;;10.97;5.27;;;;;;;;;;4983474;28;20403;-79
2022/12/07 07:27:40;;;;;;;11.07;5.73;;;;;;;;;;4971286;28;20356;-79
2022/12/07 07:30:06;;;;;;;10.47;6.63;;;;;;;;;;4991183;28;20479;-79
2022/12/07 07:32:32;;;;;;;7.30;4.63;;;;;;;;;;4983883;28;20026;-79
2022/12/07 07:34:57;;;;;;;12.27;4.60;;;;;;;;;;4999031;28;20116;-83
2022/12/07 07:37:23;;;;;;;11.90;5.50;;;;;;;;;;4998172;28;20034;-82
2022/12/07 07:39:48;;;;;;;9.20;4.60;;;;;;;;;;4985005;28;20446;-78
2022/12/07 07:42:15;;;;;;;12.37;5.10;;;;;;;;;;4995115;28;20026;-79
2022/12/07 07:44:41;;;;;;;9.13;4.30;;;;;;;;;;4986028;28;20034;-78
2022/12/07 07:47:08;;;;;;;17.73;7.10;;;;;;;;;;4983460;28;20034;-80
2022/12/07 07:49:33;;;;;;;15.50;6.07;;;;;;;;;;4978592;28;20058;-80
2022/12/07 07:52:05;;;;;;;7.87;5.00;;;;;;;;;;4986907;28;20156;-77
2022/12/07 07:54:31;;;;;;;;;;;;;;;;;;4984407;28;20022;-79
2022/12/07 07:56:58;;;;;;;8.43;5.03;;;;;;;;;;5000071;28;20259;-79
2022/12/07 07:59:24;;;;;;;16.43;5.97;;;;;;;;;;4988432;28;20037;-78
2022/12/07 08:01:50;;;;;;;14.13;4.73;;;;;;;;;;4989992;28;20050;-78
2022/12/07 08:04:15;;;;;;;8.97;4.90;;;;;;;;;;4989662;28;20241;-79
2022/12/07 08:06:42;;;;;;;8.83;4.90;;;;;;;;;;4964960;28;20039;-78
2022/12/07 08:09:08;;;;;;;11.80;4.63;;;;;;;;;;4985417;28;20035;-77
2022/12/07 08:11:34;;;;;;;9.83;5.07;;;;;;;;;;4991508;28;20057;-76
2022/12/07 08:14:03;;;;;;;15.10;5.60;;;;;;;;;;4988073;28;20050;-76
2022/12/07 08:16:29;;;;;;;11.90;5.97;;;;;;;;;;4995386;28;20404;-77
2022/12/07 08:18:54;;;;;;;13.33;6.03;;;;;;;;;;4980090;28;20050;-78
2022/12/07 08:21:20;;;;;;;7.43;4.33;;;;;;;;;;4981970;28;20037;-79
2022/12/07 08:23:46;;;;;;;8.50;4.43;;;;;;;;;;4988783;28;20104;-79
2022/12/07 08:26:15;;;;;;;6.17;3.67;;;;;;;;;;4990972;28;20038;-77
2022/12/07 08:28:42;;;;;;;6.00;3.77;;;;;;;;;;4989206;28;20030;-79
2022/12/07 08:31:12;;;;;;;10.90;4.00;;;;;;;;;;4978238;28;20041;-79
2022/12/07 08:33:39;;;;;;;7.70;4.63;;;;;;;;;;4984796;28;20459;-80
2022/12/07 08:36:07;;;;;;;7.30;3.47;;;;;;;;;;4985060;28;20026;-80
2022/12/07 08:38:37;;;;;;;7.90;4.60;;;;;;;;;;4988082;28;20026;-79
2022/12/07 08:41:04;;;;;;;10.43;4.57;;;;;;;;;;4985324;28;20036;-80
2022/12/07 08:43:30;;;;;;;8.10;4.50;;;;;;;;;;4986407;28;20034;-79
2022/12/07 08:46:02;;;;;;;19.37;7.83;;;;;;;;;;4964627;28;20162;-76
2022/12/07 08:48:28;;;;;;;7.60;4.37;;;;;;;;;;4972164;28;20037;-77
2022/12/07 08:50:53;;;;;;;8.53;4.90;;;;;;;;;;4998495;28;20542;-81
2022/12/07 08:53:20;;;;;;;15.47;4.80;;;;;;;;;;4980375;28;20834;-77
2022/12/07 08:55:46;;;;;;;12.10;5.70;;;;;;;;;;4987870;28;20034;-78
2022/12/07 08:58:12;;;;;;;10.00;5.00;;;;;;;;;;5002042;28;20034;-81
2022/12/07 09:00:38;;;;;;;14.30;5.27;;;;;;;;;;4990740;28;20050;-80
2022/12/07 09:03:03;;;;;;;9.67;4.70;;;;;;;;;;4990837;28;20038;-79
2022/12/07 09:05:29;;;;;;;11.20;4.83;;;;;;;;;;4983078;28;20085;-78
2022/12/07 09:07:59;;;;;;;9.07;4.97;;;;;;;;;;4988683;28;20097;-79
2022/12/07 09:10:25;;;;;;;11.17;5.63;;;;;;;;;;4988791;28;20073;-78
2022/12/07 09:12:51;;;;;;;19.53;8.93;;;;;;;;;;5012622;28;20120;-80
2022/12/07 09:15:17;;;;;;;10.30;5.27;;;;;;;;;;4991768;28;20475;-81
2022/12/07 09:17:42;;;;;;;9.30;5.13;;;;;;;;;;4984854;28;20113;-82
2022/12/07 09:20:08;;;;;;;11.37;5.33;;;;;;;;;;4990815;28;20034;-77
2022/12/07 09:22:34;;;;;;;9.53;4.87;;;;;;;;;;4987011;28;20087;-78
2022/12/07 09:25:01;;;;;;;10.50;6.10;;;;;;;;;;5001018;28;20037;-79
2022/12/07 09:27:26;;;;;;;7.53;5.30;;;;;;;;;;4992864;28;20038;-79
2022/12/07 09:29:52;;;;;;;10.00;5.03;;;;;;;;;;4971122;28;20038;-79
2022/12/07 09:32:18;;;;;;;9.83;5.30;;;;;;;;;;4978957;28;20046;-77
2022/12/07 09:34:43;;;;;;;8.23;4.60;;;;;;;;;;4987207;28;20039;-80
2022/12/07 09:37:10;;;;;;;8.27;5.37;;;;;;;;;;4988529;28;20133;-78
2022/12/07 09:39:38;;;;;;;9.37;5.00;;;;;;;;;;5008771;28;20022;-79
2022/12/07 09:42:05;;;;;;;9.47;5.30;;;;;;;;;;5000660;28;20034;-80
2022/12/07 09:44:31;;;;;;;7.93;5.37;;;;;;;;;;4976699;28;20375;-79
2022/12/07 09:46:59;;;;;;;8.27;5.40;;;;;;;;;;4989251;28;20046;-80
2022/12/07 09:49:30;;;;;;;10.37;4.93;;;;;;;;;;4993490;28;20049;-77
2022/12/07 09:52:03;;;;;;;8.13;4.75;;;;;;;;;;4989037;28;20037;-79
2022/12/07 09:54:30;;;;;;;8.27;4.83;;;;;;;;;;4981464;28;20525;-80
2022/12/07 09:56:58;;;;;;;12.23;4.87;;;;;;;;;;4982746;28;20030;-80
2022/12/07 09:59:23;;;;;;;8.27;4.77;;;;;;;;;;5005741;28;20037;-80
2022/12/07 10:01:50;;;;;;;10.00;4.50;;;;;;;;;;4992136;28;20046;-80
2022/12/07 10:04:25;;;;;;;7.53;4.80;;;;;;;;;;4988334;28;20033;-78
2022/12/07 10:06:52;;;;;;;7.77;4.97;;;;;;;;;;5001911;28;20057;-77
2022/12/07 10:09:21;;;;;;;10.03;4.37;;;;;;;;;;4991760;28;20133;-78
2022/12/07 10:12:09;;;;;;;10.43;4.73;;;;;;;;;;4986947;28;20028;-79
2022/12/07 10:14:59;;;;;;;16.87;4.93;;;;;;;;;;5002075;28;20117;-79
2022/12/07 10:17:34;;;;;;;8.63;4.70;;;;;;;;;;4996117;28;20030;-80
2022/12/07 10:20:30;;;;;;;7.97;3.77;;;;;;;;;;4996393;28;20077;-81
2022/12/07 10:23:01;;;;;;;6.70;4.43;;;;;;;;;;4980533;28;20042;-80
2022/12/07 10:25:32;;;;;;;9.50;4.60;;;;;;;;;;4986246;28;20073;-80
2022/12/07 10:28:06;;;;;;;6.23;4.30;;;;;;;;;;4985906;28;20030;-79
2022/12/07 10:30:33;;;;;;;5.93;3.93;;;;;;;;;;5005329;28;20057;-77
2022/12/07 10:32:58;;;;;;;7.47;4.57;;;;;;;;;;4983253;28;20053;-77
2022/12/07 10:35:27;;;;;;;7.67;4.87;;;;;;;;;;4987320;28;20022;-81
2022/12/07 10:37:57;;;;;;;8.40;4.43;;;;;;;;;;4982744;28;20065;-79
2022/12/07 10:40:36;;;;;;;10.20;5.23;;;;;;;;;;4988331;28;20497;-79
2022/12/07 10:43:13;;;;;;;8.07;4.93;;;;;;;;;;4998669;28;20411;-79
2022/12/07 10:46:07;;;;;;;8.03;4.60;;;;;;;;;;4991952;28;20065;-82
2022/12/07 10:48:45;;;;;;;7.93;4.70;;;;;;;;;;4987309;28;20023;-80
2022/12/07 10:51:34;;;;;;;6.10;3.93;;;;;;;;;;4992551;28;20030;-81
2022/12/07 10:54:41;;;;;;;11.37;5.27;;;;;;;;;;5009860;28;20057;-80
2022/12/07 10:57:34;;;;;;;8.83;5.10;;;;;;;;;;4987274;28;20150;-80
2022/12/07 11:00:08;;;;;;;9.83;5.07;;;;;;;;;;4983887;28;20129;-80
2022/12/07 11:03:23;;;;;;;10.73;5.63;;;;;;;;;;5000817;28;20049;-82
2022/12/07 11:06:03;;;;;;;6.70;4.77;;;;;;;;;;4991254;28;20042;-80
2022/12/07 11:08:38;;;;;;;11.60;5.50;;;;;;;;;;5005638;28;20578;-79
2022/12/07 11:11:38;;;;;;;9.80;5.23;;;;;;;;;;5003881;28;20125;-81
2022/12/07 11:14:29;;;;;;;8.03;5.07;;;;;;;;;;4985387;28;20419;-76
2022/12/07 11:17:28;;;;;;;9.37;5.37;;;;;;;;;;4983377;28;20034;-79
2022/12/07 11:20:20;;;;;;;7.40;4.60;;;;;;;;;;4979820;28;20034;-80
2022/12/07 11:22:58;;;;;;;11.65;4.88;;;;;;;;;;4987846;28;20109;-80
2022/12/07 11:25:49;;;;;;;9.20;5.13;;;;;;;;;;4989163;28;20035;-80
2022/12/07 11:28:41;;;;;;;10.43;5.30;;;;;;;;;;4964758;28;20038;-81
2022/12/07 11:31:13;;;;;;;10.40;5.43;;;;;;;;;;4986849;28;20088;-78
2022/12/07 11:33:47;;;;;;;10.82;5.43;;;;;;;;;;4983977;28;20110;-80
2022/12/07 11:36:40;;;;;;;12.10;5.20;;;;;;;;;;4976004;28;20034;-77
2022/12/07 11:39:21;;;;;;;7.70;4.17;;;;;;;;;;4993695;28;20088;-79
2022/12/07 11:41:52;;;;;;;7.90;4.80;;;;;;;;;;4982103;28;20030;-79
2022/12/07 11:44:39;;;;;;;7.72;4.43;;;;;;;;;;4980272;28;20085;-79
2022/12/07 11:47:20;;;;;;;8.30;4.60;;;;;;;;;;5007067;28;20098;-79
2022/12/07 11:49:53;;;;;;;;;;;;;;;;;;5002593;28;20068;-77
2022/12/07 11:52:41;;;;;;;9.35;4.75;;;;;;;;;;4982397;28;19921;-79
2022/12/07 11:55:26;;;;;;;7.80;4.73;;;;;;;;;;4991584;28;20191;-79
2022/12/07 11:58:12;;;;;;;11.17;5.03;;;;;;;;;;4978019;28;20145;-82
2022/12/07 12:00:38;;;;;;;9.53;4.77;;;;;;;;;;4976710;28;20117;-80
2022/12/07 12:03:12;;;;;;;11.17;4.30;;;;;;;;;;4975090;28;20053;-78
2022/12/07 12:05:39;;;;;;;6.87;4.00;;;;;;;;;;4988192;28;20326;-82
2022/12/07 12:08:31;;;;;;;7.93;4.00;;;;;;;;;;4984892;28;20038;-80
2022/12/07 12:11:30;;;;;;;8.70;4.15;;;;;;;;;;4963560;28;20034;-78
2022/12/07 12:14:38;;;;;;;7.70;3.97;;;;;;;;;;4969531;28;20443;-73
2022/12/07 12:17:09;;;;;;;6.60;3.90;;;;;;;;;;4943462;28;20669;-77
2022/12/07 12:19:38;;;;;;;6.00;3.80;;;;;;;;;;4994558;28;20489;-78
2022/12/07 12:22:15;;;;;;;8.97;4.67;;;;;;;;;;4961479;28;20149;-81
2022/12/07 12:24:43;;;;;;;8.20;3.77;;;;;;;;;;4967093;28;20042;-78
2022/12/07 12:27:21;;;;;;;9.57;4.97;;;;;;;;;;4969694;28;20037;-78
2022/12/07 12:29:58;;;;;;;7.20;4.67;;;;;;;;;;4951784;28;20030;-81
2022/12/07 12:32:45;;;;;;;15.07;5.90;;;;;;;;;;4966568;28;20634;-80
2022/12/07 12:35:32;;;;;;;6.50;3.30;;;;;;;;;;4973119;28;20039;-80
2022/12/07 12:38:33;;;;;;;5.97;3.27;;;;;;;;;;4963394;28;20045;-81
2022/12/07 12:40:59;;;;;;;6.13;3.60;;;;;;;;;;4969011;28;20038;-79
2022/12/07 12:43:49;;;;;;;6.37;3.10;;;;;;;;;;4961380;28;20050;-80
2022/12/07 12:46:29;;;;;;;8.43;3.73;;;;;;;;;;4952733;28;20038;-78
2022/12/07 12:49:33;;;;;;;5.10;3.03;;;;;;;;;;4960885;28;20046;-81
2022/12/07 12:52:14;;;;;;;5.97;3.60;;;;;;;;;;4961208;28;20046;-80
2022/12/07 12:55:20;;;;;;;6.83;4.47;;;;;;;;;;4967477;28;20034;-80
2022/12/07 12:57:48;;;;;;;7.87;3.53;;;;;;;;;;4977195;28;20470;-79
2022/12/07 13:00:16;;;;;;;8.67;3.60;;;;;;;;;;4954644;28;20081;-79
2022/12/07 13:02:54;;;;;;;6.70;3.27;;;;;;;;;;4956227;28;20070;-79
2022/12/07 13:05:30;;;;;;;5.17;3.30;;;;;;;;;;4946618;28;20096;-78
2022/12/07 13:08:24;;;;;;;6.77;3.10;;;;;;;;;;4979750;28;20110;-79
2022/12/07 13:10:49;;;;;;;6.13;3.50;;;;;;;;;;4976472;28;20754;-79
2022/12/07 13:13:15;;;;;;;4.53;3.53;;;;;;;;;;4953503;28;20274;-80
2022/12/07 13:15:42;;;;;;;5.20;3.13;;;;;;;;;;4939708;28;20902;-79
2022/12/07 13:18:32;;;;;;;5.87;3.13;;;;;;;;;;4950072;28;20375;-80
2022/12/07 13:21:07;;;;;;;8.70;2.90;;;;;;;;;;4950490;28;20045;-79
2022/12/07 13:23:51;;;;;;;8.53;2.63;;;;;;;;;;4928510;28;20030;-81
2022/12/07 13:26:22;;;;;;;7.90;2.97;;;;;;;;;;4956310;28;20039;-78
2022/12/07 13:29:13;;;;;;;4.83;2.70;;;;;;;;;;4973548;28;20046;-80
2022/12/07 13:31:51;;;;;;;4.90;2.90;;;;;;;;;;4939625;28;20489;-78
2022/12/07 13:34:41;;;;;;;8.10;3.10;;;;;;;;;;4948468;28;20049;-76
2022/12/07 13:37:27;;;;;;;5.13;2.77;;;;;;;;;;4981810;28;20438;-81
2022/12/07 13:40:19;;;;;;;7.47;2.67;;;;;;;;;;4957951;28;20199;-79
2022/12/07 13:42:45;;;;;;;5.55;2.50;;;;;;;;;;4978088;28;20034;-79
2022/12/07 13:45:51;;;;;;;4.27;2.40;;;;;;;;;;4940958;28;20042;-77
2022/12/07 13:48:23;;;;;;;4.63;2.00;;;;;;;;;;4961284;28;20079;-82
2022/12/07 13:50:54;;;;;;;3.77;2.60;;;;;;;;;;4975317;28;20125;-78
2022/12/07 13:53:20;;;;;;;3.40;2.43;;;;;;;;;;4950160;28;20062;-77
2022/12/07 13:55:47;;;;;;;6.30;2.70;;;;;;;;;;4964211;28;20443;-81
2022/12/07 13:58:13;;;;;;;4.03;2.70;;;;;;;;;;4989064;28;20038;-78
2022/12/07 14:00:40;;;;;;;4.07;2.27;;;;;;;;;;4963727;28;20961;-75
2022/12/07 14:03:21;;;;;;;6.03;2.63;;;;;;;;;;4970047;28;20030;-80
2022/12/07 14:06:15;;;;;;;6.83;3.40;;;;;;;;;;4991679;28;20026;-77
2022/12/07 14:08:41;;;;;;;4.93;3.40;;;;;;;;;;4984124;28;20149;-79
2022/12/07 14:11:13;;;;;;;8.37;3.47;;;;;;;;;;4977524;28;20108;-78
2022/12/07 14:14:00;;;;;;;7.07;3.40;;;;;;;;;;4967262;28;20044;-78
2022/12/07 14:16:34;;;;;;;7.13;4.20;;;;;;;;;;4980610;28;20047;-80
2022/12/07 14:19:05;;;;;;;7.63;3.83;;;;;;;;;;4976631;28;20443;-79
2022/12/07 14:21:33;;;;;;;10.60;4.43;;;;;;;;;;4983507;28;20101;-78
2022/12/07 14:24:18;;;;;;;8.33;4.17;;;;;;;;;;4978270;28;20395;-78
2022/12/07 14:26:49;;;;;;;9.00;4.17;;;;;;;;;;4990245;28;20034;-81
2022/12/07 14:29:34;;;;;;;7.13;4.90;;;;;;;;;;4991936;28;20026;-82
2022/12/07 14:32:36;;;;;;;9.03;4.53;;;;;;;;;;5000694;28;20076;-78
2022/12/07 14:35:36;;;;;;;;;;;;;;;;;;4982513;28;20053;-77
2022/12/07 14:39:04;;;;;;;8.37;3.93;;;;;;;;;;4982757;28;20432;-77
2022/12/07 14:42:30;;;;;;;7.17;3.97;;;;;;;;;;4988391;28;20049;-77
2022/12/07 14:46:04;;;;;;;8.73;3.90;;;;;;;;;;5001847;28;20439;-77
2022/12/07 14:48:31;;;;;;;13.97;5.73;;;;;;;;;;4986459;28;20629;-76
2022/12/07 14:50:57;;;;;;;8.07;4.00;;;;;;;;;;4957024;28;20039;-77
2022/12/07 14:57:45;;;;;;;15.47;4.70;;;;;;;;;;4972638;28;20045;-79
2022/12/07 15:00:59;;;;;;;9.47;4.43;;;;;;;;;;4917614;29;20047;-76
2022/12/07 15:03:54;;;;;;;8.20;4.23;;;;;;;;;;4932265;28;20046;-79
2022/12/07 15:07:01;;;;;;;7.87;4.80;;;;;;;;;;4897437;28;20084;-74
2022/12/07 15:10:11;;;;;;;10.23;4.90;;;;;;;;;;4962370;28;20035;-80
2022/12/07 15:16:42;;;;;;;8.73;4.23;;;;;;;;;;4952669;29;20034;-77
2022/12/07 15:25:53;;;;;;;8.63;3.93;;;;;;;;;;4859130;29;20045;-72
2022/12/07 15:38:35;;;;;;;7.70;4.37;;;;;;;;;;4583015;26;20054;-77
2022/12/07 15:42:08;;;;;;;10.57;4.63;;;;;;;;;;4989340;28;20031;-80
2022/12/07 15:49:01;;;;;;;;;;;;;;;;;;;;;
2022/12/07 15:51:28;;;;;;;11.57;4.47;;;;;;;;;;4970280;28;20042;-79